ESNG

Gällivare Airport

Gällivare, Sweden
METAR ESNG 190850Z 30009KT CAVOK 06/02 Q1008
Observed Flight Rules
Oct-19 @ 08:50 UTC (34 minutes ago) Visual Flight Rules
Wind Visibility Clouds
300° at 9 knots 10,000+ meters
  • Clear skies
Temperatures Readings
Current 6°C / 43°F
Dewpoint 2°C / 36°F
Humidity 76%
Altimeter 29.76" Hg
Pressure 1008 hPa
Elevation 310
METAR ESNG 190850Z 30009KT CAVOK 06/02 Q1008
Observed Flight Rules
Oct-19 @ 08:50 UTC
(34 minutes ago)
VFR
Wind Visibility
300° at 9 knots 10,000+ meters
Clouds
  • Clear skies
Temperature Dewpoint
6°C / 43°F 2°C / 36°F
Humidity Altimeter Pressure
76% 29.76" Hg 1008 hPa